createdAt,value
2017-07-23T00:01:55.264Z,82.70
2017-07-23T00:04:21.543Z,82.60
2017-07-23T00:06:47.796Z,82.80
2017-07-23T00:09:14.785Z,82.80
2017-07-23T00:11:41.202Z,82.70
2017-07-23T00:14:07.446Z,82.90
2017-07-23T00:16:33.672Z,82.80
2017-07-23T00:19:00.724Z,82.80
2017-07-23T00:21:26.954Z,82.80
2017-07-23T00:23:53.950Z,82.90
2017-07-23T00:26:20.226Z,82.80
2017-07-23T00:28:46.455Z,82.80
2017-07-23T00:31:15.775Z,82.80
2017-07-23T00:33:42.773Z,82.80
2017-07-23T00:36:09.016Z,82.80
2017-07-23T00:38:35.282Z,82.50
2017-07-23T00:41:03.179Z,83.80
2017-07-23T00:43:30.176Z,83.20
2017-07-23T00:45:56.422Z,83.00
2017-07-23T00:48:22.667Z,83.10
2017-07-23T00:50:48.918Z,83.20
2017-07-23T00:53:15.911Z,83.20
2017-07-23T00:55:42.291Z,83.10
2017-07-23T00:58:08.518Z,83.20
2017-07-23T01:00:34.743Z,83.20
2017-07-23T01:03:01.914Z,82.50
2017-07-23T01:05:28.194Z,83.10
2017-07-23T01:07:54.424Z,83.00
2017-07-23T01:10:20.862Z,82.90
2017-07-23T01:12:47.839Z,82.80
2017-07-23T01:15:14.079Z,82.60
2017-07-23T01:17:40.366Z,82.70
2017-07-23T01:20:07.344Z,82.70
2017-07-23T01:22:33.596Z,82.60
2017-07-23T01:25:00.621Z,82.70
2017-07-23T01:27:27.615Z,82.80
2017-07-23T01:29:53.887Z,82.70
2017-07-23T01:32:22.189Z,82.70
2017-07-23T01:34:48.425Z,82.70
2017-07-23T01:37:14.683Z,82.70
2017-07-23T01:39:40.954Z,82.60
2017-07-23T01:42:07.203Z,82.50
2017-07-23T01:44:33.453Z,82.40
2017-07-23T01:47:00.215Z,82.40
2017-07-23T01:49:26.481Z,82.50
2017-07-23T01:51:52.725Z,82.50
2017-07-23T01:54:19.018Z,82.30
2017-07-23T01:56:45.258Z,82.30
2017-07-23T01:59:11.554Z,82.30
2017-07-23T02:01:37.810Z,82.30
2017-07-23T02:04:04.793Z,82.40
2017-07-23T02:06:31.039Z,82.60
2017-07-23T02:08:58.266Z,82.40
2017-07-23T02:11:25.255Z,82.40
2017-07-23T02:13:51.490Z,82.40
2017-07-23T02:16:17.778Z,82.50
2017-07-23T02:18:44.751Z,82.60
2017-07-23T02:21:11.014Z,83.20
2017-07-23T02:23:37.356Z,82.60
2017-07-23T02:26:03.603Z,82.70
2017-07-23T02:28:29.878Z,82.70
2017-07-23T02:30:56.922Z,82.80
2017-07-23T02:33:25.403Z,82.90
2017-07-23T02:35:51.635Z,82.90
2017-07-23T02:38:18.659Z,83.20
2017-07-23T02:40:44.890Z,83.00
2017-07-23T02:43:11.106Z,83.30
2017-07-23T02:45:37.393Z,83.40
2017-07-23T02:48:04.390Z,83.50
2017-07-23T02:50:30.634Z,83.50
2017-07-23T02:52:56.968Z,83.50
2017-07-23T02:55:23.203Z,83.70
2017-07-23T02:57:49.425Z,83.70
2017-07-23T03:00:16.479Z,83.80
2017-07-23T03:02:42.714Z,83.90
2017-07-23T03:05:08.937Z,83.70
2017-07-23T03:07:35.990Z,83.70
2017-07-23T03:10:02.954Z,83.90
2017-07-23T03:12:29.196Z,83.80
2017-07-23T03:17:28.390Z,84.00
2017-07-23T03:19:55.361Z,84.30
2017-07-23T03:22:21.594Z,84.20
2017-07-23T03:24:47.862Z,84.30
2017-07-23T03:27:14.106Z,84.50
2017-07-23T03:29:40.337Z,84.50
2017-07-23T03:32:06.641Z,84.60
2017-07-23T03:34:37.339Z,84.60
2017-07-23T03:37:03.595Z,84.70
2017-07-23T03:39:31.459Z,84.70
2017-07-23T03:41:57.754Z,85.40
2017-07-23T03:44:24.014Z,84.80
2017-07-23T03:46:51.188Z,84.80
2017-07-23T03:49:17.454Z,84.80
2017-07-23T03:51:43.690Z,85.00
2017-07-23T03:54:10.797Z,85.10
2017-07-23T03:56:37.806Z,85.00
2017-07-23T03:59:04.077Z,85.00
2017-07-23T04:01:31.653Z,85.00
2017-07-23T04:03:57.985Z,85.00
2017-07-23T04:06:24.291Z,84.90
2017-07-23T04:08:50.579Z,84.90
2017-07-23T04:11:16.847Z,84.90
2017-07-23T04:13:43.085Z,85.00
2017-07-23T04:16:09.360Z,84.80
2017-07-23T04:18:36.383Z,84.70
2017-07-23T04:21:11.992Z,84.70
2017-07-23T04:23:38.286Z,84.70
2017-07-23T04:26:05.662Z,84.90
2017-07-23T04:28:32.665Z,84.90
2017-07-23T04:30:58.890Z,84.80
2017-07-23T04:33:25.113Z,84.80
2017-07-23T04:36:00.948Z,84.90
2017-07-23T04:38:28.388Z,84.90
2017-07-23T04:40:54.619Z,85.00
2017-07-23T04:43:21.081Z,85.00
2017-07-23T04:45:48.051Z,85.00
2017-07-23T04:48:14.306Z,85.00
2017-07-23T04:50:40.615Z,85.10
2017-07-23T04:53:06.900Z,85.30
2017-07-23T04:55:33.910Z,85.30
2017-07-23T04:58:00.153Z,85.30
2017-07-23T05:00:26.387Z,85.20
2017-07-23T05:02:52.610Z,85.20
2017-07-23T05:05:19.490Z,85.30
2017-07-23T05:07:45.724Z,85.40
2017-07-23T05:10:11.989Z,85.30
2017-07-23T05:12:38.368Z,85.20
2017-07-23T05:15:04.633Z,85.40
2017-07-23T05:17:30.881Z,85.50
2017-07-23T05:19:57.266Z,85.60
2017-07-23T05:22:23.502Z,85.70
2017-07-23T05:24:49.741Z,85.80
2017-07-23T05:27:16.900Z,86.00
2017-07-23T05:29:43.150Z,86.20
2017-07-23T05:32:09.406Z,86.30
2017-07-23T05:34:35.708Z,86.30
2017-07-23T05:37:04.690Z,86.70
2017-07-23T05:39:30.956Z,86.40
2017-07-23T05:41:57.233Z,86.40
2017-07-23T05:44:23.466Z,86.60
2017-07-23T05:46:49.695Z,86.50
2017-07-23T05:51:49.444Z,86.40
2017-07-23T05:54:16.484Z,86.30
2017-07-23T05:56:42.744Z,86.30
2017-07-23T05:59:09.027Z,86.20
2017-07-23T06:01:35.303Z,86.30
2017-07-23T06:04:01.541Z,86.30
2017-07-23T06:06:28.715Z,86.30
2017-07-23T06:08:55.723Z,86.20
2017-07-23T06:11:21.971Z,86.20
2017-07-23T06:13:49.056Z,86.30
2017-07-23T06:16:15.319Z,86.20
2017-07-23T06:18:41.574Z,86.10
2017-07-23T06:21:08.066Z,86.10
2017-07-23T06:23:35.055Z,86.00
2017-07-23T06:26:01.327Z,86.00
2017-07-23T06:28:27.645Z,86.30
2017-07-23T06:30:53.887Z,86.20
2017-07-23T06:33:20.131Z,86.10
2017-07-23T06:35:46.703Z,86.00
2017-07-23T06:38:25.303Z,85.90
2017-07-23T06:40:52.312Z,85.80
2017-07-23T06:43:18.558Z,85.80
2017-07-23T06:45:44.807Z,85.40
2017-07-23T06:48:11.136Z,86.00
2017-07-23T06:50:37.372Z,86.00
2017-07-23T06:53:03.610Z,86.00
2017-07-23T06:55:30.392Z,86.20
2017-07-23T06:57:57.353Z,87.10
2017-07-23T07:00:23.631Z,86.40
2017-07-23T07:02:49.903Z,86.70
2017-07-23T07:05:16.891Z,86.40
2017-07-23T07:07:43.118Z,86.50
2017-07-23T07:10:09.372Z,86.50
2017-07-23T07:12:35.605Z,86.30
2017-07-23T07:15:01.846Z,86.20
2017-07-23T07:17:28.962Z,86.10
2017-07-23T07:19:56.119Z,85.80
2017-07-23T07:22:22.387Z,85.80
2017-07-23T07:24:49.606Z,85.50
2017-07-23T07:27:16.619Z,85.30
2017-07-23T07:29:42.868Z,85.20
2017-07-23T07:32:09.163Z,85.10
2017-07-23T07:34:35.434Z,84.90
2017-07-23T07:37:02.439Z,85.30
2017-07-23T07:39:46.560Z,84.60
2017-07-23T07:42:13.536Z,84.60
2017-07-23T07:44:39.810Z,84.60
2017-07-23T07:47:06.076Z,84.80
2017-07-23T07:49:33.048Z,85.00
2017-07-23T07:51:59.338Z,84.30
2017-07-23T07:54:25.610Z,84.50
2017-07-23T07:56:51.903Z,84.70
2017-07-23T07:59:25.033Z,84.30
2017-07-23T08:01:52.023Z,83.60
2017-07-23T08:04:18.279Z,83.50
2017-07-23T08:06:44.533Z,83.30
2017-07-23T08:09:11.558Z,82.10
2017-07-23T08:11:37.787Z,82.00
2017-07-23T08:14:04.055Z,81.70
2017-07-23T08:16:30.283Z,81.80
2017-07-23T08:18:56.521Z,82.00
2017-07-23T08:21:23.593Z,82.10
2017-07-23T08:23:49.832Z,82.10
2017-07-23T08:26:16.811Z,81.40
2017-07-23T08:28:43.102Z,81.30
2017-07-23T08:31:10.204Z,81.50
2017-07-23T08:33:36.561Z,80.80
2017-07-23T08:36:02.824Z,80.80
2017-07-23T08:38:29.063Z,80.70
2017-07-23T08:40:57.906Z,80.60
2017-07-23T08:43:24.277Z,81.00
2017-07-23T08:45:50.510Z,80.70
2017-07-23T08:48:16.749Z,80.90
2017-07-23T08:50:43.796Z,81.10
2017-07-23T08:53:10.078Z,81.10
2017-07-23T08:55:37.132Z,79.90
2017-07-23T08:58:03.418Z,79.80
2017-07-23T09:00:29.669Z,79.40
2017-07-23T09:02:56.015Z,80.40
2017-07-23T09:05:23.495Z,80.70
2017-07-23T09:07:49.782Z,80.60
2017-07-23T09:10:16.046Z,81.50
2017-07-23T09:12:42.309Z,81.60
2017-07-23T09:15:08.558Z,80.90
2017-07-23T09:17:34.808Z,80.40
2017-07-23T09:20:01.060Z,79.90
2017-07-23T09:22:27.427Z,79.30
2017-07-23T09:24:54.412Z,79.60
2017-07-23T09:27:20.978Z,79.60
2017-07-23T09:29:47.210Z,80.00
2017-07-23T09:32:13.447Z,80.10
2017-07-23T09:34:39.699Z,80.20
2017-07-23T09:37:06.051Z,79.70
2017-07-23T09:39:33.047Z,80.20
2017-07-23T09:41:59.776Z,79.50
2017-07-23T09:44:26.046Z,79.20
2017-07-23T09:46:52.275Z,78.50
2017-07-23T09:51:52.089Z,78.10
2017-07-23T09:54:18.366Z,78.20
2017-07-23T09:56:44.591Z,79.10
2017-07-23T09:59:10.992Z,79.80
2017-07-23T10:01:37.234Z,79.90
2017-07-23T10:04:04.198Z,81.50
2017-07-23T10:06:30.450Z,81.50
2017-07-23T10:08:56.695Z,82.10
2017-07-23T10:11:22.942Z,81.90
2017-07-23T10:13:49.531Z,81.20
2017-07-23T10:16:15.790Z,81.00
2017-07-23T10:18:42.030Z,80.70
2017-07-23T10:21:08.346Z,80.00
2017-07-23T10:23:34.605Z,80.00
2017-07-23T10:26:00.839Z,78.80
2017-07-23T10:28:27.106Z,79.70
2017-07-23T10:30:53.343Z,79.90
2017-07-23T10:33:19.589Z,79.00
2017-07-23T10:35:46.256Z,79.10
2017-07-23T10:38:12.546Z,77.60
2017-07-23T10:40:38.787Z,77.30
2017-07-23T10:43:07.318Z,76.40
2017-07-23T10:45:34.327Z,75.10
2017-07-23T10:48:00.578Z,75.10
2017-07-23T10:50:26.825Z,74.90
2017-07-23T10:52:53.102Z,73.80
2017-07-23T10:55:19.325Z,73.30
2017-07-23T10:57:45.630Z,73.40
2017-07-23T11:00:11.908Z,73.00
2017-07-23T11:02:38.148Z,72.80
2017-07-23T11:05:04.399Z,72.40
2017-07-23T11:07:30.670Z,71.80
2017-07-23T11:09:56.920Z,71.40
2017-07-23T11:12:23.171Z,71.60
2017-07-23T11:14:49.410Z,71.30
2017-07-23T11:17:15.653Z,71.40
2017-07-23T11:19:41.973Z,72.40
2017-07-23T11:22:08.349Z,72.40
2017-07-23T11:24:35.497Z,72.40
2017-07-23T11:27:02.972Z,72.30
2017-07-23T11:29:29.352Z,72.40
2017-07-23T11:31:55.730Z,71.90
2017-07-23T11:34:22.898Z,73.40
2017-07-23T11:36:49.517Z,72.70
2017-07-23T11:39:15.892Z,71.60
2017-07-23T11:41:43.559Z,70.40
2017-07-23T11:44:10.625Z,70.10
2017-07-23T11:46:37.039Z,69.80
2017-07-23T11:49:04.182Z,69.50
2017-07-23T11:51:31.117Z,69.30
2017-07-23T11:53:58.248Z,69.40
2017-07-23T11:56:24.666Z,69.30
2017-07-23T11:58:51.024Z,68.60
2017-07-23T12:01:17.402Z,68.80
2017-07-23T12:03:45.151Z,68.60
2017-07-23T12:06:11.574Z,68.60
2017-07-23T12:08:37.859Z,68.20
2017-07-23T12:11:04.121Z,67.50
2017-07-23T12:13:31.154Z,68.50
2017-07-23T12:15:58.163Z,69.30
2017-07-23T12:18:24.595Z,68.60
2017-07-23T12:20:50.850Z,67.60
2017-07-23T12:23:17.067Z,66.70
2017-07-23T12:25:44.115Z,65.60
2017-07-23T12:28:10.357Z,65.10
2017-07-23T12:30:36.586Z,64.60
2017-07-23T12:33:02.886Z,65.00
2017-07-23T12:35:29.146Z,65.00
2017-07-23T12:37:56.118Z,63.70
2017-07-23T12:40:22.418Z,63.60
2017-07-23T12:42:49.412Z,61.30
2017-07-23T12:45:28.947Z,60.90
2017-07-23T12:47:56.050Z,61.10
2017-07-23T12:50:23.054Z,61.00
2017-07-23T12:52:49.334Z,61.00
2017-07-23T12:55:16.341Z,61.80
2017-07-23T12:57:42.591Z,61.70
2017-07-23T13:00:08.851Z,61.80
2017-07-23T13:02:35.085Z,61.80
2017-07-23T13:05:01.333Z,61.50
2017-07-23T13:07:27.785Z,61.70
2017-07-23T13:09:54.793Z,61.90
2017-07-23T13:12:21.046Z,61.90
2017-07-23T13:14:47.308Z,62.10
2017-07-23T13:17:14.294Z,62.50
2017-07-23T13:19:40.518Z,62.50
2017-07-23T13:22:06.767Z,60.40
2017-07-23T13:24:33.000Z,59.70
2017-07-23T13:26:59.235Z,59.90
2017-07-23T13:29:25.511Z,60.50
2017-07-23T13:31:51.791Z,60.80
2017-07-23T13:34:18.052Z,61.90
2017-07-23T13:36:44.342Z,62.20
2017-07-23T13:39:11.330Z,62.10
2017-07-23T13:41:37.569Z,62.10
2017-07-23T13:44:03.831Z,62.10
2017-07-23T13:46:30.076Z,62.50
2017-07-23T13:48:57.246Z,62.80
2017-07-23T13:51:23.534Z,63.40
2017-07-23T13:53:49.789Z,63.80
2017-07-23T13:56:16.021Z,63.60
2017-07-23T13:58:42.777Z,63.40
2017-07-23T14:01:09.029Z,62.50
2017-07-23T14:03:35.284Z,62.00
2017-07-23T14:06:01.642Z,61.60
2017-07-23T14:08:27.886Z,59.90
2017-07-23T14:10:54.126Z,59.50
2017-07-23T14:13:20.366Z,60.10
2017-07-23T14:15:46.611Z,60.20
2017-07-23T14:18:12.843Z,59.30
2017-07-23T14:20:39.954Z,58.70
2017-07-23T14:23:06.227Z,58.70
2017-07-23T14:25:32.515Z,58.20
2017-07-23T14:27:59.702Z,58.00
2017-07-23T14:30:26.018Z,58.00
2017-07-23T14:32:52.258Z,57.90
2017-07-23T14:35:18.688Z,57.40
2017-07-23T14:37:45.683Z,56.40
2017-07-23T14:40:11.932Z,56.30
2017-07-23T14:42:39.034Z,55.00
2017-07-23T14:45:06.026Z,55.40
2017-07-23T14:47:32.255Z,55.20
2017-07-23T14:50:09.505Z,56.00
2017-07-23T14:52:36.500Z,56.10
2017-07-23T14:55:02.789Z,56.10
2017-07-23T14:57:29.082Z,56.00
2017-07-23T14:59:55.335Z,56.50
2017-07-23T15:02:21.578Z,56.70
2017-07-23T15:04:49.160Z,55.60
2017-07-23T15:07:17.018Z,55.80
2017-07-23T15:09:43.998Z,56.00
2017-07-23T15:12:10.251Z,55.90
2017-07-23T15:14:36.542Z,56.50
2017-07-23T15:17:03.555Z,56.60
2017-07-23T15:19:29.832Z,56.50
2017-07-23T15:21:56.818Z,56.40
2017-07-23T15:24:23.058Z,56.30
2017-07-23T15:26:49.346Z,56.40
2017-07-23T15:29:16.337Z,54.80
2017-07-23T15:31:42.598Z,54.60
2017-07-23T15:34:08.855Z,54.60
2017-07-23T15:36:35.121Z,54.40
2017-07-23T15:39:01.393Z,54.90
2017-07-23T15:41:27.658Z,55.10
2017-07-23T15:43:54.657Z,55.70
2017-07-23T15:46:20.886Z,55.70
2017-07-23T15:48:47.842Z,56.30
2017-07-23T15:51:14.164Z,56.00
2017-07-23T15:53:41.142Z,55.90
2017-07-23T15:56:07.405Z,55.90
2017-07-23T15:58:33.676Z,56.20
2017-07-23T16:01:00.641Z,56.10
2017-07-23T16:03:26.893Z,56.00
2017-07-23T16:05:53.125Z,55.90
2017-07-23T16:08:19.370Z,56.60
2017-07-23T16:10:45.702Z,56.60
2017-07-23T16:13:11.962Z,56.20
2017-07-23T16:15:38.182Z,55.90
2017-07-23T16:18:04.442Z,56.60
2017-07-23T16:20:30.676Z,56.90
2017-07-23T16:22:56.931Z,57.00
2017-07-23T16:25:24.108Z,56.50
2017-07-23T16:27:50.343Z,56.40
2017-07-23T16:30:17.309Z,56.50
2017-07-23T16:32:43.633Z,56.40
2017-07-23T16:35:09.879Z,56.80
2017-07-23T16:37:36.110Z,56.80
2017-07-23T16:40:02.543Z,57.20
2017-07-23T16:42:28.841Z,57.20
2017-07-23T16:44:55.081Z,56.60
2017-07-23T16:47:21.350Z,56.90
2017-07-23T16:49:48.321Z,57.90
2017-07-23T16:52:15.019Z,57.80
2017-07-23T16:54:41.699Z,57.80
2017-07-23T16:57:08.013Z,58.20
2017-07-23T16:59:34.283Z,58.60
2017-07-23T17:02:00.588Z,57.90
2017-07-23T17:04:27.556Z,57.60
2017-07-23T17:06:53.787Z,57.60
2017-07-23T17:09:20.078Z,57.70
2017-07-23T17:11:46.329Z,57.60
2017-07-23T17:14:12.577Z,57.80
2017-07-23T17:16:39.613Z,58.70
2017-07-23T17:19:06.614Z,57.70
2017-07-23T17:21:32.862Z,57.70
2017-07-23T17:23:59.287Z,57.90
2017-07-23T17:26:25.537Z,58.10
2017-07-23T17:28:51.815Z,57.60
2017-07-23T17:31:18.826Z,57.70
2017-07-23T17:33:45.113Z,57.60
2017-07-23T17:36:11.348Z,57.70
2017-07-23T17:38:39.052Z,58.50
2017-07-23T17:41:05.297Z,57.90
2017-07-23T17:43:31.579Z,58.20
2017-07-23T17:45:58.621Z,57.80
2017-07-23T17:48:24.883Z,58.10
2017-07-23T17:50:51.144Z,58.40
2017-07-23T17:53:18.172Z,58.30
2017-07-23T17:55:45.156Z,58.30
2017-07-23T17:58:11.417Z,58.20
2017-07-23T18:00:37.777Z,58.20
2017-07-23T18:03:04.051Z,58.60
2017-07-23T18:05:30.304Z,59.30
2017-07-23T18:07:56.819Z,59.90
2017-07-23T18:10:23.781Z,60.20
2017-07-23T18:12:50.065Z,60.20
2017-07-23T18:15:16.359Z,60.30
2017-07-23T18:17:42.586Z,60.00
2017-07-23T18:20:08.849Z,60.00
2017-07-23T18:22:35.855Z,59.30
2017-07-23T18:25:03.658Z,57.60
2017-07-23T18:27:36.977Z,57.60
2017-07-23T18:30:03.235Z,56.60
2017-07-23T18:32:29.511Z,55.60
2017-07-23T18:34:55.810Z,54.50
2017-07-23T18:37:22.802Z,54.30
2017-07-23T18:39:49.076Z,54.20
2017-07-23T18:42:15.391Z,54.40
2017-07-23T18:44:41.640Z,54.40
2017-07-23T18:47:07.889Z,54.60
2017-07-23T18:49:34.153Z,55.60
2017-07-23T18:52:01.126Z,55.30
2017-07-23T18:54:27.749Z,55.90
2017-07-23T18:56:54.741Z,54.50
2017-07-23T18:59:21.023Z,54.50
2017-07-23T19:01:48.058Z,55.00
2017-07-23T19:04:14.858Z,54.40
2017-07-23T19:06:41.095Z,54.80
2017-07-23T19:09:07.426Z,55.20
2017-07-23T19:11:33.770Z,55.90
2017-07-23T19:14:00.019Z,55.80
2017-07-23T19:16:26.322Z,56.20
2017-07-23T19:18:52.640Z,56.10
2017-07-23T19:21:19.630Z,56.60
2017-07-23T19:23:45.895Z,56.50
2017-07-23T19:26:12.408Z,56.60
2017-07-23T19:28:38.721Z,56.70
2017-07-23T19:31:04.962Z,56.90
2017-07-23T19:33:31.222Z,57.20
2017-07-23T19:35:57.487Z,57.90
2017-07-23T19:38:23.734Z,58.10
2017-07-23T19:40:50.778Z,58.60
2017-07-23T19:43:17.022Z,58.40
2017-07-23T19:45:43.306Z,58.30
2017-07-23T19:48:09.634Z,59.00
2017-07-23T19:50:35.955Z,59.00
2017-07-23T19:53:02.295Z,59.20
2017-07-23T19:55:29.741Z,59.30
2017-07-23T19:57:56.071Z,59.50
2017-07-23T20:00:22.494Z,59.30
2017-07-23T20:02:49.010Z,59.50
2017-07-23T20:05:16.075Z,59.60
2017-07-23T20:07:42.400Z,59.50
2017-07-23T20:10:09.023Z,59.30
2017-07-23T20:12:35.285Z,59.40
2017-07-23T20:15:01.553Z,59.30
2017-07-23T20:17:27.840Z,59.30
2017-07-23T20:19:54.099Z,59.30
2017-07-23T20:22:20.396Z,59.70
2017-07-23T20:24:46.687Z,59.70
2017-07-23T20:27:12.958Z,60.00
2017-07-23T20:29:39.207Z,59.80
2017-07-23T20:32:06.039Z,59.80
2017-07-23T20:34:33.119Z,59.90
2017-07-23T20:36:59.391Z,59.90
2017-07-23T20:39:25.679Z,59.80
2017-07-23T20:41:51.970Z,59.90
2017-07-23T20:44:18.234Z,60.10
2017-07-23T20:46:44.507Z,60.20
2017-07-23T20:49:10.754Z,60.40
2017-07-23T20:51:37.031Z,60.50
2017-07-23T20:54:03.329Z,60.60
2017-07-23T20:56:30.223Z,60.10
2017-07-23T20:58:57.198Z,60.20
2017-07-23T21:01:24.024Z,60.10
2017-07-23T21:03:50.279Z,59.80
2017-07-23T21:06:16.566Z,60.00
2017-07-23T21:08:42.828Z,59.80
2017-07-23T21:11:09.109Z,59.50
2017-07-23T21:13:35.401Z,58.90
2017-07-23T21:16:01.701Z,58.90
2017-07-23T21:18:27.959Z,58.90
2017-07-23T21:20:54.981Z,58.40
2017-07-23T21:23:21.780Z,58.40
2017-07-23T21:25:48.060Z,58.30
2017-07-23T21:28:14.379Z,58.30
2017-07-23T21:30:40.788Z,58.40
2017-07-23T21:33:07.766Z,58.80
2017-07-23T21:35:33.996Z,58.70
2017-07-23T21:38:00.295Z,58.90
2017-07-23T21:40:27.267Z,58.60
2017-07-23T21:42:54.898Z,58.60
2017-07-23T21:45:21.976Z,58.80
2017-07-23T21:47:48.202Z,59.20
2017-07-23T21:50:15.169Z,59.60
2017-07-23T21:52:41.454Z,59.00
2017-07-23T21:55:07.684Z,59.40
2017-07-23T21:57:35.275Z,58.70
2017-07-23T22:00:01.740Z,59.20
2017-07-23T22:02:27.977Z,59.40
2017-07-23T22:04:54.941Z,59.30
2017-07-23T22:07:21.974Z,59.30
2017-07-23T22:09:48.217Z,59.40
2017-07-23T22:12:14.472Z,59.30
2017-07-23T22:14:40.830Z,59.40
2017-07-23T22:17:07.238Z,59.60
2017-07-23T22:19:33.456Z,59.90
2017-07-23T22:21:59.720Z,59.90
2017-07-23T22:24:26.035Z,60.10
2017-07-23T22:26:53.015Z,60.20
2017-07-23T22:29:19.723Z,60.20
2017-07-23T22:31:46.009Z,60.10
2017-07-23T22:34:12.257Z,59.80
2017-07-23T22:36:38.516Z,59.80
2017-07-23T22:39:05.501Z,60.00
2017-07-23T22:41:31.767Z,60.10
2017-07-23T22:43:59.422Z,60.30
2017-07-23T22:46:25.690Z,60.60
2017-07-23T22:48:52.689Z,60.80
2017-07-23T22:51:19.728Z,60.90
2017-07-23T22:53:45.982Z,61.20
2017-07-23T22:56:12.202Z,61.00
2017-07-23T22:58:49.488Z,60.90
2017-07-23T23:01:15.779Z,60.80
2017-07-23T23:03:42.795Z,61.10
2017-07-23T23:06:09.042Z,61.10
2017-07-23T23:08:35.278Z,61.20
2017-07-23T23:11:01.506Z,61.10
2017-07-23T23:13:28.305Z,61.00
2017-07-23T23:15:55.294Z,61.30
2017-07-23T23:18:21.525Z,61.10
2017-07-23T23:20:47.804Z,61.40
2017-07-23T23:23:14.039Z,61.40
2017-07-23T23:25:40.284Z,61.50
2017-07-23T23:28:06.543Z,61.60
2017-07-23T23:30:33.557Z,61.80
2017-07-23T23:32:59.795Z,61.70
2017-07-23T23:35:26.887Z,61.90
2017-07-23T23:37:53.140Z,61.90
2017-07-23T23:40:19.390Z,62.20
2017-07-23T23:42:45.646Z,62.50
2017-07-23T23:45:13.322Z,62.20
2017-07-23T23:47:39.557Z,62.30
2017-07-23T23:50:05.822Z,62.70
2017-07-23T23:52:32.847Z,62.00
2017-07-23T23:54:59.092Z,62.00
2017-07-23T23:57:26.137Z,62.20
